Latest Coastal Weather Observations for Cape Ferguson

IDQ60701

Issued at 6:42 pm EST Wednesday 10 August 2022 (issued every 10 minutes, with the page automatically refreshed every 10 minutes)

About coastal observations | Map of coastal stations | Coastal observations for QLD | Marine services | Other Formats
Station Details ID: 032182 Name: CAPE FERGUSON NTC AWS Lat: -19.28 Lon: 147.06 Height: 0.0 m
Data from the previous 72 hours. | See also: Recent months for locations in Queensland
Date/Time
EST
Wind Sea
Height
m
Swell Vis
km
Cloud Weather Temp
°C
Press
MSL
hPa
Rain since
9am
mm
Dir  Spd
kts
Gust
kts
Height
m
Period
s
Dir
10/06:30pm E 16 19 - - - - - - - 20.7 1019.7 -
10/06:00pm E 16 19 - - - - - - - 20.6 1019.5 -
10/05:30pm E 15 19 - - - - - - - 20.7 1019.1 -
10/05:00pm E 15 19 - - - - - - - 20.6 1018.9 -
10/04:30pm E 14 17 - - - - - - - 20.6 1018.5 -
10/04:00pm E 14 18 - - - - - - - 20.5 1018.4 -
10/03:30pm E 13 17 - - - - - - - 20.5 1018.4 -
10/03:00pm E 13 17 - - - - - - - 20.6 1018.4 -
10/02:30pm E 13 16 - - - - - - - 20.4 1018.5 -
10/02:00pm E 11 14 - - - - - - - 20.4 1018.9 -
10/01:30pm ESE 13 16 - - - - - - - 20.3 1019.5 -
10/01:00pm E 13 15 - - - - - - - 20.2 1019.8 -
10/12:30pm E 12 15 - - - - - - - 20.4 1020.2 -
10/12:00pm ESE 12 15 - - - - - - - 20.3 1020.5 -
10/11:30am ESE 10 12 - - - - - - - 20.1 1020.9 -
10/11:00am SE 12 15 - - - - - - - 19.8 1021.2 -
10/10:30am SE 11 14 - - - - - - - 19.1 1021.3 -
10/10:00am SSE 12 15 - - - - - - - 18.7 1021.4 -
10/09:30am SSE 14 17 - - - - - - - 18.5 1021.3 -
10/09:00am SSE 14 18 - - - - - - - 17.9 1021.1 -
10/08:30am SSE 14 17 - - - - - - - 17.8 1020.9 -
10/08:00am SSE 14 17 - - - - - - - 17.7 1020.8 -
10/07:30am SSE 13 16 - - - - - - - 18.0 1020.5 -
10/07:00am S 9 13 - - - - - - - 17.8 1020.0 -
10/06:30am SSW 6 10 - - - - - - - 17.5 1019.7 -
10/06:00am S 9 13 - - - - - - - 17.5 1019.3 -
10/05:30am S 11 14 - - - - - - - 17.8 1019.0 -
10/05:00am S 9 13 - - - - - - - 17.6 1018.6 -
10/04:30am SW 4 9 - - - - - - - 17.1 1018.4 -
10/04:00am WSW 4 8 - - - - - - - 16.9 1018.4 -
10/03:30am WSW 5 9 - - - - - - - 16.7 1018.5 -
10/03:00am S 8 11 - - - - - - - 17.4 1018.7 -
10/02:30am S 8 10 - - - - - - - 17.7 1018.9 -
10/02:00am S 8 11 - - - - - - - 18.0 1018.9 -
10/01:30am SSE 9 11 - - - - - - - 18.8 1019.2 -
10/01:00am SSE 11 13 - - - - - - - 19.0 1019.5 -
10/12:30am SE 12 14 - - - - - - - 19.5 1019.6 -
10/12:00am E 14 17 - - - - - - - 20.3 1019.8 -
 
Date/Time
EST
Wind Sea
Height
m
Swell Vis
km
Cloud Weather Temp
°C
Press
MSL
hPa
Rain since
9am
mm
Dir  Spd
kts
Gust
kts
Height
m
Period
s
Dir
09/11:30pm E 15 21 - - - - - - - 20.3 1020.1 -
09/11:00pm E 14 17 - - - - - - - 20.2 1020.2 -
09/10:30pm E 13 17 - - - - - - - 20.3 1020.1 -
09/10:00pm E 14 17 - - - - - - - 20.3 1020.1 -
09/09:30pm E 12 14 - - - - - - - 20.5 1019.7 -
09/09:00pm E 13 15 - - - - - - - 20.5 1019.5 -
09/08:30pm E 12 14 - - - - - - - 20.6 1019.1 -
09/08:00pm E 12 14 - - - - - - - 20.5 1019.0 -
09/07:30pm E 11 14 - - - - - - - 20.6 1018.4 -
09/07:00pm E 11 12 - - - - - - - 20.6 1018.1 -
09/06:30pm E 10 13 - - - - - - - 20.6 1017.6 -
09/06:00pm E 10 13 - - - - - - - 20.5 1017.2 -
09/05:30pm E 11 14 - - - - - - - 20.6 1017.0 -
09/05:00pm E 11 14 - - - - - - - 20.5 1016.5 -
09/04:30pm E 13 15 - - - - - - - 20.2 1016.4 -
09/04:00pm E 13 15 - - - - - - - 20.2 1016.2 -
09/03:30pm E 14 17 - - - - - - - 20.1 1016.0 -
09/03:00pm E 13 17 - - - - - - - 20.2 1016.1 -
09/02:30pm E 14 16 - - - - - - - 20.1 1016.3 -
09/02:00pm E 13 17 - - - - - - - 20.0 1016.7 -
09/01:30pm E 13 15 - - - - - - - 20.1 1017.1 -
09/01:00pm E 11 14 - - - - - - - 20.2 1017.5 -
09/12:30pm ESE 8 11 - - - - - - - 20.4 1017.9 -
09/12:00pm ESE 9 12 - - - - - - - 20.2 1018.6 -
09/11:30am SE 9 13 - - - - - - - 19.9 1018.8 -
09/11:00am SE 10 13 - - - - - - - 19.7 1019.2 -
09/10:30am SE 11 13 - - - - - - - 19.1 1019.8 -
09/10:00am SSE 12 14 - - - - - - - 18.8 1020.1 -
09/09:30am SSE 13 16 - - - - - - - 18.5 1020.1 -
09/09:00am SSE 13 16 - - - - - - - 18.4 1019.9 -
09/08:30am SSE 13 15 - - - - - - - 18.4 1019.7 -
09/08:00am SSE 13 18 - - - - - - - 17.9 1019.5 -
09/07:30am SSE 13 18 - - - - - - - 18.0 1019.2 -
09/07:00am SSE 14 18 - - - - - - - 18.3 1018.9 -
09/06:30am SSE 13 17 - - - - - - - 18.1 1018.5 -
09/06:00am SSE 13 17 - - - - - - - 18.2 1018.4 -
09/05:30am SSE 14 17 - - - - - - - 18.2 1018.3 -
09/05:00am SSE 14 18 - - - - - - - 18.1 1018.1 -
09/04:30am SSE 14 18 - - - - - - - 18.3 1018.0 -
09/04:00am SSE 12 15 - - - - - - - 18.4 1017.6 -
09/03:30am SSE 11 13 - - - - - - - 18.5 1017.6 -
09/03:00am SSE 11 14 - - - - - - - 18.6 1017.7 -
09/02:30am SSE 10 13 - - - - - - - 18.9 1017.9 -
09/02:00am SSE 9 12 - - - - - - - 18.9 1018.2 -
09/01:30am SSE 9 12 - - - - - - - 18.9 1018.3 -
09/01:00am SSE 10 13 - - - - - - - 19.1 1018.5 -
09/12:30am SSE 11 13 - - - - - - - 19.5 1018.6 -
09/12:00am SSE 11 13 - - - - - - - 19.7 1018.5 -
 
Date/Time
EST
Wind Sea
Height
m
Swell Vis
km
Cloud Weather Temp
°C
Press
MSL
hPa
Rain since
9am
mm
Dir  Spd
kts
Gust
kts
Height
m
Period
s
Dir
08/11:30pm SE 11 13 - - - - - - - 20.5 1018.3 -
08/11:00pm SE 12 15 - - - - - - - 20.5 1018.5 -
08/10:30pm ESE 13 17 - - - - - - - 21.0 1018.5 -
08/10:00pm ESE 13 16 - - - - - - - 21.1 1018.5 -
08/09:30pm ESE 13 16 - - - - - - - 21.3 1018.4 -
08/09:00pm E 12 15 - - - - - - - 21.2 1018.1 -
08/08:30pm E 13 15 - - - - - - - 21.3 1017.8 -
08/08:00pm E 11 13 - - - - - - - 21.3 1017.5 -
08/07:30pm E 11 14 - - - - - - - 21.3 1017.2 -
08/07:00pm E 11 13 - - - - - - - 21.2 1016.9 -
08/06:30pm E 11 13 - - - - - - - 21.4 1016.5 -
08/06:00pm E 11 14 - - - - - - - 21.5 1015.9 -
08/05:30pm E 10 12 - - - - - - - 21.5 1015.7 -
08/05:00pm E 11 13 - - - - - - - 21.4 1015.6 -
08/04:30pm E 11 14 - - - - - - - 21.6 1015.3 -
08/04:00pm E 12 14 - - - - - - - 21.6 1015.0 -
08/03:30pm ENE 12 14 - - - - - - - 21.4 1015.1 -
08/03:00pm ENE 13 15 - - - - - - - 21.6 1015.2 -
08/02:30pm E 13 17 - - - - - - - 21.5 1015.4 -
08/02:00pm E 14 16 - - - - - - - 21.5 1015.7 -
08/01:30pm E 14 17 - - - - - - - 21.5 1016.2 -
08/01:00pm E 15 17 - - - - - - - 21.6 1016.6 -
08/12:30pm E 16 18 - - - - - - - 21.5 1017.1 -
08/12:00pm E 13 16 - - - - - - - 21.6 1017.4 -
08/11:30am E 11 15 - - - - - - - 21.4 1017.6 -
08/11:00am SE 10 12 - - - - - - - 21.5 1017.8 -
08/10:30am SE 10 13 - - - - - - - 21.3 1018.0 -
08/10:00am SE 11 14 - - - - - - - 20.9 1018.2 -
08/09:30am SSE 11 13 - - - - - - - 20.5 1018.3 -
08/09:00am SSE 11 13 - - - - - - - 20.4 1018.2 -
08/08:30am SSE 10 13 - - - - - - - 20.2 1018.0 -
08/08:00am SSE 11 12 - - - - - - - 20.2 1017.7 -
08/07:30am SSE 9 12 - - - - - - - 20.4 1017.3 -
08/07:00am SSE 9 11 - - - - - - - 20.6 1017.0 -
08/06:30am SE 9 11 - - - - - - - 20.8 1016.8 -
08/06:00am SE 9 11 - - - - - - - 20.6 1016.4 -
08/05:30am SSE 9 11 - - - - - - - 20.8 1015.8 -
08/05:00am SE 7 9 - - - - - - - 21.2 1015.5 -
08/04:30am SE 9 10 - - - - - - - 21.0 1015.3 -
08/04:00am SE 8 10 - - - - - - - 21.3 1015.2 -
08/03:30am ESE 11 13 - - - - - - - 21.6 1015.4 -
08/03:00am ESE 8 11 - - - - - - - 21.8 1015.4 -
08/02:30am ESE 10 12 - - - - - - - 21.7 1015.5 -
08/02:00am ESE 11 14 - - - - - - - 22.0 1015.5 -
08/01:30am E 11 14 - - - - - - - 21.9 1015.9 -
08/01:00am SE 12 14 - - - - - - - 21.9 1016.1 -
08/12:30am ESE 9 12 - - - - - - - 22.2 1016.2 -
08/12:00am ESE 12 14 - - - - - - - 22.3 1016.3 -
 
Date/Time
EST
Wind Sea
Height
m
Swell Vis
km
Cloud Weather Temp
°C
Press
MSL
hPa
Rain since
9am
mm
Dir  Spd
kts
Gust
kts
Height
m
Period
s
Dir
07/11:30pm ESE 8 10 - - - - - - - 22.4 1016.4 -
07/11:00pm E 8 11 - - - - - - - 22.4 1016.4 -
07/10:30pm ESE 7 10 - - - - - - - 22.4 1016.5 -
07/10:00pm E 8 9 - - - - - - - 22.5 1016.5 -
07/09:30pm E 6 7 - - - - - - - 22.5 1016.2 -
07/09:00pm E 4 5 - - - - - - - 22.5 1016.1 -
07/08:30pm CALM 0 0 - - - - - - - 21.9 1015.7 -
07/08:00pm CALM 0 1 - - - - - - - 22.3 1015.4 -
07/07:30pm NNE 1 2 - - - - - - - 22.7 1015.1 -
07/07:00pm NE 2 4 - - - - - - - 22.9 1014.6 -

Other formats

Comma delimited format used in spreadsheet applications
http://www.bom.gov.au/fwo/IDQ60701/IDQ60701.94297.axf

JavaScript Object Notation format (JSON) in row-major order
http://www.bom.gov.au/fwo/IDQ60701/IDQ60701.94297.json

Data quality

Most of these data are generated automatically and are frequently updated. Quality checks on data are not normally performed. It is possible for incorrect values to appear. Refer to information at About Latest Weather Observations and please check the disclaimer before using these data.